Hauptseite
METAR-TAF:

METAR-TAF

Flughäfen :

NWS Office

Majuro, Marshallinseln

Breite: 07-05N, Länge: 171-12E, Höhe: 4 m

Beobachtung

Neuester Wetterbericht von vor 1 Stunde und 11 Minuten, um 21:55 UTC
Wind 5 kt aus Ost
Temperatur 30°C
Luftfeuchtigkeit 79%
Luftdruck 1012 hPa
Sichtweite: 24.1 km
Leicht bewölkt in der Höhe von 1400 ft
Aufgelockert bewölkt in der Höhe von 5000 ft
Durchbrochene Bewölkung in der Höhe von 11000 ft
Geschlossene Wolkendecke in der Höhe von 30000 ft

METAR: PKMR 152155Z 08005KT 15SM FEW014 SCT050 BKN110 OVC300 30/26 A2987 RMK SLP117 T02970256

Zeit: 11:06 (23:06 UTC)


TAF: fehlend

Wetterbeobachtungen und Prognosen von mehr als 4000 Flughäfen (METAR und TAF Bericht).

Die verfügbaren Stationen werden durch gelbe und rote Markierungen auf der Karte dargestellt.

Führen Sie die Maus auf sie, um den Namen der Station zu sehen.

Darauf klicken, um die Beobachtung von Wetterbeobachtungen und Prognosen zu sehen.

Um die Karte zu ändern : klicken Sie auf den grünen Tasten mit einem schwarzen Kreuz Zum Vergrößern, auf den grünen Button mit einem Gedankenstrich zu verkleinern, oder auf die grünen Pfeile für benachbarte Karten.


METAR-TAF: